Aviation Digital Data Service (ADDS)

Output produced by METARs form (0202 UTC 31 March 2015)
found at http://aviationweather.gov/adds/metars/
 
KCKB 302334Z 3100/3124 28006KT P6SM SCT080 
     FM310100 27006KT P6SM SCT250 
     FM310800 23005KT P6SM BKN080 
     FM311300 21009G15KT P6SM BKN100 
     FM311500 22014G24KT P6SM BKN090 
     FM312100 28014G24KT P6SM BKN045 
     FM312300 31012G20KT P6SM BKN040